createdAt,value
2019-06-10T00:01:16.296Z,22.59
2019-06-10T00:03:51.446Z,22.52
2019-06-10T00:06:22.662Z,22.44
2019-06-10T00:08:56.036Z,22.37
2019-06-10T00:11:28.515Z,22.32
2019-06-10T00:14:02.491Z,22.31
2019-06-10T00:16:34.727Z,22.27
2019-06-10T00:19:09.574Z,22.26
2019-06-10T00:21:41.319Z,22.25
2019-06-10T00:24:13.635Z,22.24
2019-06-10T00:26:45.892Z,22.19
2019-06-10T00:29:18.172Z,22.16
2019-06-10T00:31:50.953Z,22.11
2019-06-10T00:34:23.548Z,22.07
2019-06-10T00:36:55.807Z,22.02
2019-06-10T00:39:28.035Z,21.95
2019-06-10T00:42:03.180Z,21.89
2019-06-10T00:44:34.140Z,21.87
2019-06-10T00:47:08.324Z,21.87
2019-06-10T00:49:41.003Z,21.87
2019-06-10T00:52:14.065Z,21.87
2019-06-10T00:54:46.521Z,21.86
2019-06-10T00:57:20.769Z,21.87
2019-06-10T00:59:52.851Z,21.85
2019-06-10T01:02:25.148Z,21.81
2019-06-10T01:04:57.703Z,21.76
2019-06-10T01:07:31.150Z,21.72
2019-06-10T01:10:04.756Z,21.66
2019-06-10T01:12:37.060Z,21.64
2019-06-10T01:15:12.125Z,21.60
2019-06-10T01:17:43.968Z,21.58
2019-06-10T01:20:16.406Z,21.55
2019-06-10T01:22:48.772Z,21.55
2019-06-10T01:25:21.677Z,21.54
2019-06-10T01:27:54.087Z,21.55
2019-06-10T01:30:27.407Z,21.54
2019-06-10T01:33:01.152Z,21.52
2019-06-10T01:35:33.671Z,21.50
2019-06-10T01:38:06.028Z,21.49
2019-06-10T01:40:38.294Z,21.48
2019-06-10T01:43:13.304Z,21.45
2019-06-10T01:45:44.908Z,21.43
2019-06-10T01:48:17.920Z,21.43
2019-06-10T01:50:51.292Z,21.44
2019-06-10T01:53:23.957Z,21.45
2019-06-10T01:55:56.237Z,21.47
2019-06-10T01:58:28.597Z,21.47
2019-06-10T02:01:05.299Z,21.45
2019-06-10T02:03:37.939Z,21.42
2019-06-10T02:06:15.671Z,21.42
2019-06-10T02:08:44.524Z,21.47
2019-06-10T02:11:18.725Z,21.52
2019-06-10T02:13:51.506Z,21.55
2019-06-10T02:16:24.274Z,21.57
2019-06-10T02:19:00.420Z,21.57
2019-06-10T02:21:31.133Z,21.58
2019-06-10T02:24:03.700Z,21.59
2019-06-10T02:26:36.009Z,21.59
2019-06-10T02:29:08.373Z,21.58
2019-06-10T02:31:43.316Z,21.57
2019-06-10T02:34:19.649Z,21.58
2019-06-10T02:36:49.075Z,21.59
2019-06-10T02:39:28.110Z,21.61
2019-06-10T02:41:56.963Z,21.64
2019-06-10T02:44:33.094Z,21.66
2019-06-10T02:47:03.608Z,21.72
2019-06-10T02:49:52.609Z,21.81
2019-06-10T02:52:28.710Z,21.91
2019-06-10T02:54:54.055Z,21.99
2019-06-10T02:57:34.830Z,22.10
2019-06-10T03:00:04.267Z,22.23
2019-06-10T03:02:36.506Z,22.36
2019-06-10T03:05:08.706Z,22.50
2019-06-10T03:07:44.012Z,22.62
2019-06-10T03:10:16.314Z,22.77
2019-06-10T03:12:49.037Z,22.91
2019-06-10T03:15:24.537Z,23.04
2019-06-10T03:17:55.270Z,23.15
2019-06-10T03:20:28.400Z,23.30
2019-06-10T03:23:02.915Z,23.44
2019-06-10T03:25:34.792Z,23.56
2019-06-10T03:28:06.977Z,23.69
2019-06-10T03:30:52.334Z,23.83
2019-06-10T03:33:13.868Z,23.96
2019-06-10T03:35:46.448Z,24.11
2019-06-10T03:38:18.708Z,24.27
2019-06-10T03:40:52.468Z,24.41
2019-06-10T03:43:26.352Z,24.56
2019-06-10T03:45:58.942Z,24.74
2019-06-10T03:48:32.811Z,24.87
2019-06-10T03:51:04.985Z,25.03
2019-06-10T03:53:37.231Z,25.19
2019-06-10T03:56:09.474Z,25.34
2019-06-10T03:58:42.992Z,25.48
2019-06-10T04:01:15.657Z,25.60
2019-06-10T04:03:47.909Z,25.75
2019-06-10T04:06:21.476Z,25.88
2019-06-10T04:08:54.590Z,25.98
2019-06-10T04:11:27.367Z,26.16
2019-06-10T04:14:02.371Z,26.31
2019-06-10T04:16:34.828Z,26.42
2019-06-10T04:19:06.995Z,26.53
2019-06-10T04:21:39.276Z,26.62
2019-06-10T04:24:12.869Z,26.54
2019-06-10T04:26:45.196Z,26.60
2019-06-10T04:29:17.918Z,26.73
2019-06-10T04:31:52.241Z,26.87
2019-06-10T04:34:28.229Z,27.04
2019-06-10T04:36:58.165Z,27.20
2019-06-10T04:39:30.400Z,27.40
2019-06-10T04:42:02.678Z,27.58
2019-06-10T04:44:34.948Z,27.71
2019-06-10T04:47:07.205Z,27.87
2019-06-10T04:49:39.375Z,28.06
2019-06-10T04:52:12.244Z,28.25
2019-06-10T04:54:44.688Z,28.40
2019-06-10T04:57:16.925Z,28.59
2019-06-10T04:59:49.190Z,28.71
2019-06-10T05:02:23.790Z,28.90
2019-06-10T05:04:56.929Z,28.92
2019-06-10T05:07:34.221Z,29.00
2019-06-10T05:10:04.847Z,29.23
2019-06-10T05:12:37.021Z,29.46
2019-06-10T05:15:09.387Z,29.60
2019-06-10T05:17:43.718Z,29.76
2019-06-10T05:20:15.653Z,29.87
2019-06-10T05:22:47.927Z,30.05
2019-06-10T05:25:22.420Z,30.25
2019-06-10T05:27:54.065Z,30.42
2019-06-10T05:30:27.799Z,30.66
2019-06-10T05:33:02.601Z,30.78
2019-06-10T05:35:34.265Z,30.97
2019-06-10T05:38:06.449Z,31.20
2019-06-10T05:40:38.637Z,31.31
2019-06-10T05:43:12.925Z,31.59
2019-06-10T05:45:44.860Z,31.83
2019-06-10T05:48:17.106Z,31.77
2019-06-10T05:51:00.090Z,31.74
2019-06-10T05:53:25.041Z,31.86
2019-06-10T05:55:57.207Z,32.00
2019-06-10T05:58:29.422Z,32.17
2019-06-10T06:01:02.762Z,32.25
2019-06-10T06:03:36.992Z,32.31
2019-06-10T06:06:09.146Z,32.55
2019-06-10T06:08:42.836Z,32.79
2019-06-10T06:11:15.714Z,33.08
2019-06-10T06:13:47.954Z,33.25
2019-06-10T06:16:20.147Z,33.46
2019-06-10T06:18:52.811Z,33.68
2019-06-10T06:21:31.505Z,33.86
2019-06-10T06:23:59.216Z,33.93
2019-06-10T06:26:36.499Z,34.10
2019-06-10T06:29:05.427Z,34.32
2019-06-10T06:31:37.756Z,34.58
2019-06-10T06:34:13.896Z,34.74
2019-06-10T06:36:45.105Z,34.97
2019-06-10T06:39:17.368Z,35.07
2019-06-10T06:41:49.641Z,35.13
2019-06-10T06:44:23.379Z,35.18
2019-06-10T06:46:55.757Z,35.36
2019-06-10T06:49:27.970Z,35.38
2019-06-10T06:52:02.753Z,35.32
2019-06-10T06:54:36.063Z,35.35
2019-06-10T06:57:08.157Z,35.46
2019-06-10T06:59:43.050Z,35.52
2019-06-10T07:02:14.323Z,35.56
2019-06-10T07:04:46.579Z,35.53
2019-06-10T07:07:22.248Z,35.60
2019-06-10T07:09:54.536Z,35.58
2019-06-10T07:12:28.085Z,35.50
2019-06-10T07:15:04.330Z,35.45
2019-06-10T07:17:37.918Z,35.50
2019-06-10T07:20:12.522Z,35.47
2019-06-10T07:22:46.717Z,35.51
2019-06-10T07:25:18.299Z,35.58
2019-06-10T07:27:52.707Z,35.68
2019-06-10T07:30:24.633Z,35.75
2019-06-10T07:32:56.880Z,35.80
2019-06-10T07:35:29.143Z,35.83
2019-06-10T07:38:03.038Z,35.85
2019-06-10T07:40:36.553Z,35.78
2019-06-10T07:43:09.335Z,35.77
2019-06-10T07:45:45.872Z,35.80
2019-06-10T07:48:15.541Z,35.84
2019-06-10T07:50:47.738Z,35.87
2019-06-10T07:53:22.120Z,35.89
2019-06-10T07:55:54.993Z,35.87
2019-06-10T07:58:27.188Z,35.84
2019-06-10T08:00:59.507Z,35.76
2019-06-10T08:03:34.375Z,35.80
2019-06-10T08:06:06.212Z,35.74
2019-06-10T08:08:38.834Z,35.71
2019-06-10T08:11:13.703Z,35.68
2019-06-10T08:13:47.989Z,35.83
2019-06-10T08:16:20.444Z,35.89
2019-06-10T08:19:20.912Z,35.91
2019-06-10T08:21:26.603Z,35.85
2019-06-10T08:23:58.795Z,35.82
2019-06-10T08:26:32.504Z,35.89
2019-06-10T08:29:05.012Z,36.01
2019-06-10T08:31:37.281Z,36.05
2019-06-10T08:34:09.551Z,36.04
2019-06-10T08:36:46.337Z,36.06
2019-06-10T08:39:16.107Z,36.22
2019-06-10T08:41:49.266Z,36.29
2019-06-10T08:44:23.069Z,36.35
2019-06-10T08:46:55.711Z,36.15
2019-06-10T08:49:27.995Z,36.08
2019-06-10T08:52:02.776Z,35.87
2019-06-10T08:54:34.174Z,35.73
2019-06-10T08:57:06.355Z,35.62
2019-06-10T08:59:40.001Z,35.76
2019-06-10T09:02:13.581Z,35.88
2019-06-10T09:04:48.786Z,36.02
2019-06-10T09:07:19.813Z,36.07
2019-06-10T09:09:53.963Z,36.07
2019-06-10T09:12:32.477Z,35.96
2019-06-10T09:15:03.700Z,35.82
2019-06-10T09:17:35.191Z,35.88
2019-06-10T09:20:09.532Z,35.88
2019-06-10T09:22:45.415Z,35.75
2019-06-10T09:25:16.546Z,35.75
2019-06-10T09:27:51.504Z,35.95
2019-06-10T09:30:23.792Z,36.07
2019-06-10T09:32:57.548Z,36.04
2019-06-10T09:35:32.267Z,36.06
2019-06-10T09:38:03.922Z,36.19
2019-06-10T09:40:59.937Z,36.23
2019-06-10T09:43:24.489Z,36.19
2019-06-10T09:45:56.966Z,36.22
2019-06-10T09:48:29.261Z,36.29
2019-06-10T09:51:02.546Z,36.31
2019-06-10T09:53:43.003Z,36.31
2019-06-10T09:56:09.022Z,36.12
2019-06-10T09:58:44.682Z,35.94
2019-06-10T10:01:15.238Z,35.87
2019-06-10T10:03:53.476Z,35.81
2019-06-10T10:06:23.719Z,35.82
2019-06-10T10:08:58.172Z,35.98
2019-06-10T10:11:31.961Z,36.01
2019-06-10T10:14:07.930Z,35.92
2019-06-10T10:16:39.092Z,35.91
2019-06-10T10:19:13.061Z,35.86
2019-06-10T10:21:49.541Z,35.83
2019-06-10T10:24:19.141Z,35.87
2019-06-10T10:26:57.158Z,35.94
2019-06-10T10:29:26.343Z,35.89
2019-06-10T10:31:58.590Z,35.83
2019-06-10T10:34:33.219Z,35.84
2019-06-10T10:37:04.805Z,35.92
2019-06-10T10:39:37.097Z,35.88
2019-06-10T10:42:09.374Z,35.85
2019-06-10T10:44:46.199Z,35.82
2019-06-10T10:47:15.543Z,35.79
2019-06-10T10:49:49.091Z,35.87
2019-06-10T10:52:22.453Z,35.89
2019-06-10T10:54:55.615Z,35.98
2019-06-10T10:57:28.006Z,36.04
2019-06-10T11:00:02.932Z,35.96
2019-06-10T11:02:34.154Z,35.90
2019-06-10T11:05:07.961Z,35.84
2019-06-10T11:07:42.261Z,35.87
2019-06-10T11:10:14.249Z,36.05
2019-06-10T11:12:47.031Z,36.22
2019-06-10T11:15:23.203Z,36.28
2019-06-10T11:17:56.566Z,36.21
2019-06-10T11:20:29.626Z,36.18
2019-06-10T11:23:02.921Z,36.22
2019-06-10T11:25:35.459Z,36.35
2019-06-10T11:28:07.707Z,36.41
2019-06-10T11:30:42.479Z,36.48
2019-06-10T11:33:13.855Z,36.58
2019-06-10T11:35:46.731Z,36.76
2019-06-10T11:38:19.092Z,36.71
2019-06-10T11:40:55.946Z,36.70
2019-06-10T11:43:25.400Z,36.58
2019-06-10T11:46:03.541Z,36.45
2019-06-10T11:48:32.837Z,36.31
2019-06-10T11:51:05.349Z,36.27
2019-06-10T11:53:37.807Z,36.43
2019-06-10T11:56:10.071Z,36.56
2019-06-10T11:58:42.743Z,36.59
2019-06-10T12:01:15.809Z,36.51
2019-06-10T12:03:48.448Z,36.36
2019-06-10T12:06:22.870Z,36.26
2019-06-10T12:08:58.330Z,36.32
2019-06-10T12:11:29.839Z,36.35
2019-06-10T12:14:04.461Z,36.35
2019-06-10T12:17:20.682Z,36.42
2019-06-10T12:19:12.530Z,36.48
2019-06-10T12:21:44.385Z,36.46
2019-06-10T12:24:16.650Z,36.50
2019-06-10T12:26:49.820Z,36.50
2019-06-10T12:29:22.598Z,36.53
2019-06-10T12:31:58.427Z,36.52
2019-06-10T12:34:28.961Z,36.57
2019-06-10T12:37:09.483Z,36.54
2019-06-10T12:39:35.172Z,36.56
2019-06-10T12:42:10.850Z,36.68
2019-06-10T12:44:42.926Z,36.76
2019-06-10T12:47:15.304Z,36.69
2019-06-10T12:49:47.579Z,36.57
2019-06-10T12:52:19.839Z,36.39
2019-06-10T12:54:53.257Z,36.28
2019-06-10T12:57:25.648Z,36.31
2019-06-10T12:59:58.437Z,36.32
2019-06-10T13:02:34.436Z,36.22
2019-06-10T13:05:08.706Z,36.11
2019-06-10T13:07:43.011Z,35.99
2019-06-10T13:10:18.249Z,35.99
2019-06-10T13:12:53.091Z,36.03
2019-06-10T13:15:24.463Z,36.08
2019-06-10T13:17:58.150Z,36.17
2019-06-10T13:20:32.159Z,36.28
2019-06-10T13:23:17.369Z,36.38
2019-06-10T13:25:53.470Z,36.37
2019-06-10T13:28:13.600Z,36.28
2019-06-10T13:30:45.893Z,36.15
2019-06-10T13:33:18.185Z,35.98
2019-06-10T13:35:50.439Z,35.81
2019-06-10T13:38:25.667Z,35.51
2019-06-10T13:40:57.934Z,35.29
2019-06-10T13:43:33.818Z,35.03
2019-06-10T13:46:07.421Z,34.81
2019-06-10T13:48:39.289Z,34.62
2019-06-10T13:51:14.871Z,34.45
2019-06-10T13:53:46.375Z,34.32
2019-06-10T13:56:39.710Z,34.23
2019-06-10T13:58:54.103Z,34.18
2019-06-10T14:01:26.261Z,34.13
2019-06-10T14:03:58.514Z,34.15
2019-06-10T14:06:40.541Z,34.16
2019-06-10T14:09:11.237Z,34.15
2019-06-10T14:11:42.435Z,34.10
2019-06-10T14:14:18.061Z,33.93
2019-06-10T14:16:49.042Z,33.80
2019-06-10T14:19:23.173Z,33.70
2019-06-10T14:21:55.634Z,33.62
2019-06-10T14:24:27.893Z,33.53
2019-06-10T14:27:04.301Z,33.44
2019-06-10T14:29:35.085Z,33.25
2019-06-10T14:32:07.500Z,33.16
2019-06-10T14:34:41.968Z,33.08
2019-06-10T14:37:15.637Z,32.96
2019-06-10T14:39:48.659Z,32.91
2019-06-10T14:42:23.007Z,32.81
2019-06-10T14:44:54.885Z,32.72
2019-06-10T14:47:27.081Z,32.63
2019-06-10T14:49:59.378Z,32.55
2019-06-10T14:52:32.087Z,32.47
2019-06-10T14:55:07.085Z,32.41
2019-06-10T14:57:39.400Z,32.33
2019-06-10T15:00:15.658Z,32.27
2019-06-10T15:02:45.762Z,32.23
2019-06-10T15:05:19.539Z,32.18
2019-06-10T15:07:52.820Z,32.17
2019-06-10T15:10:25.184Z,32.14
2019-06-10T15:12:57.428Z,32.09
2019-06-10T15:15:29.610Z,32.08
2019-06-10T15:18:02.925Z,32.11
2019-06-10T15:20:35.788Z,32.15
2019-06-10T15:23:08.602Z,32.15
2019-06-10T15:25:49.983Z,32.09
2019-06-10T15:28:16.349Z,32.03
2019-06-10T15:30:48.829Z,31.90
2019-06-10T15:33:23.587Z,31.72
2019-06-10T15:35:55.084Z,31.51
2019-06-10T15:38:27.449Z,31.39
2019-06-10T15:40:59.713Z,31.29
2019-06-10T15:43:33.077Z,31.22
2019-06-10T15:46:05.441Z,31.17
2019-06-10T15:48:37.672Z,31.11
2019-06-10T15:51:13.460Z,31.04
2019-06-10T15:53:44.985Z,30.96
2019-06-10T15:56:35.392Z,30.90
2019-06-10T15:58:52.178Z,30.83
2019-06-10T16:01:27.165Z,30.77
2019-06-10T16:03:58.516Z,30.69
2019-06-10T16:06:32.925Z,30.65
2019-06-10T16:09:07.145Z,30.58
2019-06-10T16:11:40.476Z,30.50
2019-06-10T16:14:14.763Z,30.41
2019-06-10T16:16:48.161Z,30.37
2019-06-10T16:19:21.277Z,30.33
2019-06-10T16:21:54.130Z,30.29
2019-06-10T16:24:27.582Z,30.26
2019-06-10T16:27:00.154Z,30.23
2019-06-10T16:29:33.401Z,30.20
2019-06-10T16:32:05.836Z,30.19
2019-06-10T16:34:39.609Z,30.14
2019-06-10T16:37:12.971Z,30.12
2019-06-10T16:39:45.218Z,30.09
2019-06-10T16:42:17.492Z,30.06
2019-06-10T16:44:49.712Z,30.06
2019-06-10T16:47:25.438Z,30.01
2019-06-10T16:49:55.938Z,29.93
2019-06-10T16:52:28.201Z,29.90
2019-06-10T16:55:02.258Z,29.86
2019-06-10T16:57:35.595Z,29.83
2019-06-10T17:00:11.981Z,29.80
2019-06-10T17:02:42.753Z,29.76
2019-06-10T17:05:15.147Z,29.71
2019-06-10T17:07:47.406Z,29.67
2019-06-10T17:10:19.810Z,29.61
2019-06-10T17:12:53.641Z,29.57
2019-06-10T17:15:27.229Z,29.52
2019-06-10T17:17:59.524Z,29.51
2019-06-10T17:20:34.164Z,29.48
2019-06-10T17:23:30.377Z,29.40
2019-06-10T17:25:58.999Z,29.38
2019-06-10T17:28:36.322Z,29.41
2019-06-10T17:31:05.217Z,29.40
2019-06-10T17:33:37.464Z,29.39
2019-06-10T17:36:09.628Z,29.37
2019-06-10T17:38:42.962Z,29.37
2019-06-10T17:41:15.439Z,29.36
2019-06-10T17:43:47.615Z,29.35
2019-06-10T17:46:21.169Z,29.34
2019-06-10T17:48:53.712Z,29.31
2019-06-10T17:51:27.511Z,29.25
2019-06-10T17:54:02.287Z,29.19
2019-06-10T17:56:36.163Z,29.11
2019-06-10T17:59:07.653Z,29.09
2019-06-10T18:01:39.882Z,29.08
2019-06-10T18:04:13.019Z,29.04
2019-06-10T18:06:45.303Z,29.05
2019-06-10T18:09:17.548Z,29.05
2019-06-10T18:11:49.818Z,29.06
2019-06-10T18:14:22.945Z,29.07
2019-06-10T18:16:56.002Z,29.09
2019-06-10T18:19:28.314Z,29.09
2019-06-10T18:22:02.893Z,29.12
2019-06-10T18:24:34.939Z,29.14
2019-06-10T18:27:07.250Z,29.15
2019-06-10T18:29:39.560Z,29.15
2019-06-10T18:32:12.441Z,29.14
2019-06-10T18:34:44.980Z,29.14
2019-06-10T18:37:17.230Z,29.14
2019-06-10T18:39:49.463Z,29.14
2019-06-10T18:42:23.673Z,29.11
2019-06-10T18:44:55.908Z,29.10
2019-06-10T18:47:28.086Z,29.08
2019-06-10T18:50:00.331Z,29.06
2019-06-10T18:52:32.707Z,29.03
2019-06-10T18:55:08.011Z,28.97
2019-06-10T18:57:42.630Z,28.91
2019-06-10T19:00:15.628Z,28.84
2019-06-10T19:02:47.882Z,28.80
2019-06-10T19:05:22.288Z,28.71
2019-06-10T19:07:54.144Z,28.64
2019-06-10T19:10:26.504Z,28.55
2019-06-10T19:12:58.767Z,28.43
2019-06-10T19:15:31.839Z,28.33
2019-06-10T19:18:04.369Z,28.25
2019-06-10T19:20:38.718Z,28.17
2019-06-10T19:23:12.658Z,28.10
2019-06-10T19:25:45.169Z,28.03
2019-06-10T19:28:17.686Z,27.98
2019-06-10T19:30:49.959Z,27.92
2019-06-10T19:33:23.535Z,27.87
2019-06-10T19:35:56.194Z,27.80
2019-06-10T19:38:28.455Z,27.78
2019-06-10T19:41:02.663Z,27.77
2019-06-10T19:43:36.496Z,27.72
2019-06-10T19:46:08.674Z,27.65
2019-06-10T19:48:44.581Z,27.60
2019-06-10T19:51:14.776Z,27.57
2019-06-10T19:53:47.042Z,27.54
2019-06-10T19:56:19.475Z,27.48
2019-06-10T19:58:52.988Z,27.43
2019-06-10T20:01:25.344Z,27.39
2019-06-10T20:03:57.615Z,27.35
2019-06-10T20:06:32.104Z,27.35
2019-06-10T20:09:05.397Z,27.30
2019-06-10T20:11:38.360Z,27.23
2019-06-10T20:14:12.835Z,27.18
2019-06-10T20:16:45.996Z,27.14
2019-06-10T20:19:18.373Z,27.10
2019-06-10T20:21:50.706Z,27.08
2019-06-10T20:24:22.902Z,27.06
2019-06-10T20:26:55.328Z,27.06
2019-06-10T20:29:27.990Z,27.02
2019-06-10T20:32:00.166Z,27.02
2019-06-10T20:34:32.516Z,27.00
2019-06-10T20:37:04.937Z,26.97
2019-06-10T20:39:38.115Z,26.93
2019-06-10T20:42:12.886Z,26.92
2019-06-10T20:44:47.892Z,26.89
2019-06-10T20:47:23.034Z,26.82
2019-06-10T20:49:56.512Z,26.80
2019-06-10T20:52:29.812Z,26.83
2019-06-10T20:55:03.278Z,26.76
2019-06-10T20:57:50.923Z,26.76
2019-06-10T21:00:22.244Z,26.71
2019-06-10T21:02:48.629Z,26.68
2019-06-10T21:05:22.531Z,26.68
2019-06-10T21:07:57.991Z,26.63
2019-06-10T21:10:39.805Z,26.65
2019-06-10T21:13:13.389Z,26.58
2019-06-10T21:15:49.980Z,26.58
2019-06-10T21:18:22.554Z,26.53
2019-06-10T21:20:56.396Z,26.46
2019-06-10T21:23:29.931Z,26.42
2019-06-10T21:26:03.297Z,26.37
2019-06-10T21:28:36.783Z,26.33
2019-06-10T21:31:10.259Z,26.29
2019-06-10T21:33:45.896Z,26.22
2019-06-10T21:36:18.508Z,26.16
2019-06-10T21:38:55.389Z,26.12
2019-06-10T21:41:26.682Z,26.07
2019-06-10T21:44:02.788Z,26.02
2019-06-10T21:46:34.901Z,25.97
2019-06-10T21:49:08.180Z,25.89
2019-06-10T21:51:45.314Z,25.89
2019-06-10T21:54:16.435Z,25.91
2019-06-10T21:56:52.389Z,25.88
2019-06-10T21:59:24.819Z,25.86
2019-06-10T22:01:58.176Z,25.85
2019-06-10T22:04:32.660Z,25.82
2019-06-10T22:07:06.418Z,25.78
2019-06-10T22:09:42.409Z,25.74
2019-06-10T22:12:15.189Z,25.69
2019-06-10T22:14:48.480Z,25.65
2019-06-10T22:17:21.823Z,25.61
2019-06-10T22:19:56.427Z,25.58
2019-06-10T22:22:32.239Z,25.53
2019-06-10T22:25:07.276Z,25.49
2019-06-10T22:27:42.061Z,25.46
2019-06-10T22:30:17.247Z,25.41
2019-06-10T22:32:54.909Z,25.37
2019-06-10T22:35:25.695Z,25.31
2019-06-10T22:37:58.987Z,25.27
2019-06-10T22:40:32.844Z,25.24
2019-06-10T22:43:08.073Z,25.20
2019-06-10T22:45:42.425Z,25.17
2019-06-10T22:48:15.907Z,25.15
2019-06-10T22:50:49.192Z,25.11
2019-06-10T22:53:23.163Z,25.07
2019-06-10T22:55:58.112Z,25.05
2019-06-10T22:58:32.757Z,25.02
2019-06-10T23:01:06.085Z,25.01
2019-06-10T23:03:39.390Z,24.97
2019-06-10T23:06:12.682Z,24.94
2019-06-10T23:08:45.963Z,24.91
2019-06-10T23:11:19.252Z,24.87
2019-06-10T23:13:54.707Z,24.84
2019-06-10T23:16:27.568Z,24.82
2019-06-10T23:19:02.991Z,24.78
2019-06-10T23:21:35.812Z,24.76
2019-06-10T23:24:09.111Z,24.73
2019-06-10T23:26:42.576Z,24.69
2019-06-10T23:29:15.993Z,24.66
2019-06-10T23:31:54.435Z,24.64
2019-06-10T23:34:24.576Z,24.61
2019-06-10T23:36:58.746Z,24.59
2019-06-10T23:39:33.458Z,24.58
2019-06-10T23:42:07.219Z,24.56
2019-06-10T23:44:40.429Z,24.53
2019-06-10T23:47:13.621Z,24.52
2019-06-10T23:49:46.862Z,24.51
2019-06-10T23:52:22.139Z,24.49
2019-06-10T23:54:55.894Z,24.48
2019-06-10T23:57:29.250Z,24.45
